Inverness, Mississippi
Current Conditions -  °F | °C
As of 1:53 AM on Saturday 29 Nov 2014 (Local Time) from KGLH Reporting Station
Clear Clear  
Wind Chill: 38°   Ceiling: Unl
Heat Index: 43°   Visibility: 10mi
Dew Point: 35°   Wind: 8mph
Humidity: 74%   Direction: 170°S
Pressure: 30.12"   Gusts: NA
Location:  33.35°N, 90.59°W
Report Text: KGLH 290753Z AUTO 17007KT 10SM CLR 06/02 A3012 RMK AO2 SLP207 T00610017
Loading
Personal Weather Stations






























Interactive Weather Map New forecast layout! Learn more

10-Day Weather Forecast

Advertisements
Track Severe Weather on mobile